Time,TemperatureF,DewpointF,PressureIn,WindDirection,WindDirectionDegrees,WindSpeedMPH,WindSpeedGustMPH,Humidity,HourlyPrecipIn,Conditions,Clouds,dailyrainin,SolarRadiationWatts/m^2,SoftwareType,DateUTC
2013-06-16 00:00:00,59.2,56.0,29.81,SSW,205,0.0,0.0,89,0.00,,,0.09,0,Wunderground v.1.15,2013-06-16 05:00:00,
2013-06-16 00:05:00,59.0,55.8,29.81,SSW,205,0.0,0.0,89,0.00,,,0.00,0,Wunderground v.1.15,2013-06-16 05:05:00,
2013-06-16 00:15:00,58.4,55.2,29.81,SSW,205,0.0,0.0,89,0.00,,,0.00,0,Wunderground v.1.15,2013-06-16 05:15:00,
2013-06-16 00:20:00,58.3,55.4,29.81,SSW,205,0.0,0.0,90,0.00,,,0.00,0,Wunderground v.1.15,2013-06-16 05:20:00,
2013-06-16 00:25:00,58.3,55.4,29.81,SSW,205,0.0,0.0,90,0.00,,,0.00,0,Wunderground v.1.15,2013-06-16 05:25:00,
2013-06-16 00:30:00,58.3,56.0,29.81,SSW,205,0.0,0.0,92,0.00,,,0.00,0,Wunderground v.1.15,2013-06-16 05:30:00,
2013-06-16 00:35:00,58.1,55.2,29.81,SSW,205,0.0,0.0,90,0.00,,,0.00,0,Wunderground v.1.15,2013-06-16 05:35:00,
2013-06-16 00:44:00,57.8,54.9,29.81,SSW,205,0.0,0.0,90,0.00,,,0.00,0,Wunderground v.1.15,2013-06-16 05:44:00,
2013-06-16 00:49:00,57.7,54.8,29.81,SSW,205,0.0,0.0,90,0.00,,,0.00,0,Wunderground v.1.15,2013-06-16 05:49:00,
2013-06-16 00:59:00,57.8,55.2,29.81,SSW,205,0.0,0.0,91,0.00,,,0.00,0,Wunderground v.1.15,2013-06-16 05:59:00,
2013-06-16 01:05:00,57.7,54.8,29.81,SSW,205,0.0,0.0,90,0.00,,,0.00,0,Wunderground v.1.15,2013-06-16 06:05:00,
2013-06-16 01:15:00,57.3,54.4,29.81,SSW,205,0.0,0.0,90,0.00,,,0.00,0,Wunderground v.1.15,2013-06-16 06:15:00,
2013-06-16 01:20:00,57.1,54.5,29.81,SSW,205,0.0,0.0,91,0.00,,,0.00,0,Wunderground v.1.15,2013-06-16 06:20:00,
2013-06-16 01:25:00,56.9,54.0,29.81,SSW,205,0.0,0.0,90,0.00,,,0.00,0,Wunderground v.1.15,2013-06-16 06:25:00,
2013-06-16 01:30:00,56.7,54.1,29.81,SSW,205,0.0,0.0,91,0.00,,,0.00,0,Wunderground v.1.15,2013-06-16 06:30:00,
2013-06-16 01:35:00,56.5,53.9,29.81,SSW,205,0.0,0.0,91,0.00,,,0.00,0,Wunderground v.1.15,2013-06-16 06:35:00,
2013-06-16 01:40:00,56.4,53.8,29.81,SSW,205,0.0,0.0,91,0.00,,,0.00,0,Wunderground v.1.15,2013-06-16 06:40:00,
2013-06-16 01:49:00,56.6,54.0,29.81,SSW,205,0.0,0.0,91,0.00,,,0.00,0,Wunderground v.1.15,2013-06-16 06:49:00,
2013-06-16 01:54:00,56.5,53.9,29.81,SSW,205,0.0,0.0,91,0.00,,,0.00,0,Wunderground v.1.15,2013-06-16 06:54:00,
2013-06-16 01:59:00,56.6,54.0,29.81,SSW,205,0.0,0.0,91,0.00,,,0.00,0,Wunderground v.1.15,2013-06-16 06:59:00,
2013-06-16 02:05:00,56.7,54.1,29.81,SSW,205,0.0,0.0,91,0.00,,,0.00,0,Wunderground v.1.15,2013-06-16 07:05:00,
2013-06-16 02:15:00,56.6,54.0,29.81,SSW,205,0.0,0.0,91,0.00,,,0.00,0,Wunderground v.1.15,2013-06-16 07:15:00,
2013-06-16 02:24:00,56.2,53.6,29.81,SSW,205,0.0,0.0,91,0.00,,,0.00,0,Wunderground v.1.15,2013-06-16 07:24:00,
2013-06-16 02:29:00,56.1,53.5,29.81,SSW,205,0.0,0.0,91,0.00,,,0.00,0,Wunderground v.1.15,2013-06-16 07:29:00,
2013-06-16 02:34:00,56.0,53.4,29.81,SSW,205,0.0,0.0,91,0.00,,,0.00,0,Wunderground v.1.15,2013-06-16 07:34:00,
2013-06-16 02:39:00,55.9,53.3,29.81,SSW,205,0.0,0.0,91,0.00,,,0.00,0,Wunderground v.1.15,2013-06-16 07:39:00,
2013-06-16 02:45:00,55.9,53.3,29.81,SSW,205,0.0,0.0,91,0.00,,,0.00,0,Wunderground v.1.15,2013-06-16 07:45:00,
2013-06-16 02:54:00,55.8,53.2,29.81,SSW,205,0.0,0.0,91,0.00,,,0.00,0,Wunderground v.1.15,2013-06-16 07:54:00,
2013-06-16 02:59:00,55.8,53.2,29.81,SSW,205,0.0,0.0,91,0.00,,,0.00,0,Wunderground v.1.15,2013-06-16 07:59:00,
2013-06-16 03:05:00,55.6,53.0,29.81,SSW,205,0.0,0.0,91,0.00,,,0.00,0,Wunderground v.1.15,2013-06-16 08:05:00,
2013-06-16 03:15:00,55.5,52.9,29.81,SSW,205,0.0,0.0,91,0.00,,,0.00,0,Wunderground v.1.15,2013-06-16 08:15:00,
2013-06-16 03:24:00,55.4,52.8,29.81,SSW,205,0.0,0.0,91,0.00,,,0.00,0,Wunderground v.1.15,2013-06-16 08:24:00,
2013-06-16 03:29:00,55.5,52.9,29.81,SSW,205,0.0,0.0,91,0.00,,,0.00,0,Wunderground v.1.15,2013-06-16 08:29:00,
2013-06-16 03:34:00,55.3,52.7,29.81,SSW,205,0.0,0.0,91,0.00,,,0.00,0,Wunderground v.1.15,2013-06-16 08:34:00,
2013-06-16 03:39:00,55.1,52.5,29.81,SSW,205,0.0,0.0,91,0.00,,,0.00,0,Wunderground v.1.15,2013-06-16 08:39:00,
2013-06-16 03:44:00,55.0,52.4,29.81,SSW,205,0.0,0.0,91,0.00,,,0.00,0,Wunderground v.1.15,2013-06-16 08:44:00,
2013-06-16 03:49:00,54.9,52.3,29.81,SSW,205,0.0,0.0,91,0.00,,,0.00,0,Wunderground v.1.15,2013-06-16 08:49:00,
2013-06-16 03:59:00,54.4,51.8,29.81,SSW,205,0.0,0.0,91,0.00,,,0.00,0,Wunderground v.1.15,2013-06-16 08:59:00,
2013-06-16 04:05:00,54.2,51.6,29.81,SSW,205,0.0,0.0,91,0.00,,,0.00,0,Wunderground v.1.15,2013-06-16 09:05:00,
2013-06-16 04:14:00,54.0,51.4,29.81,SSW,205,0.0,0.0,91,0.00,,,0.00,0,Wunderground v.1.15,2013-06-16 09:14:00,
2013-06-16 04:19:00,54.1,51.5,29.81,SSW,205,0.0,0.0,91,0.00,,,0.00,0,Wunderground v.1.15,2013-06-16 09:19:00,
2013-06-16 04:24:00,54.0,51.4,29.81,SSW,205,0.0,0.0,91,0.00,,,0.00,0,Wunderground v.1.15,2013-06-16 09:24:00,
2013-06-16 04:34:00,53.9,51.3,29.81,SSW,205,0.0,0.0,91,0.00,,,0.00,0,Wunderground v.1.15,2013-06-16 09:34:00,
2013-06-16 04:39:00,53.8,51.2,29.81,SSW,205,0.0,0.0,91,0.00,,,0.00,0,Wunderground v.1.15,2013-06-16 09:39:00,
2013-06-16 04:44:00,53.9,51.3,29.81,SSW,205,0.0,0.0,91,0.00,,,0.00,0,Wunderground v.1.15,2013-06-16 09:44:00,
2013-06-16 04:49:00,53.9,51.3,29.82,SSW,205,0.0,0.0,91,0.00,,,0.00,0,Wunderground v.1.15,2013-06-16 09:49:00,
2013-06-16 04:54:00,53.8,51.2,29.82,SSW,205,0.0,0.0,91,0.00,,,0.00,0,Wunderground v.1.15,2013-06-16 09:54:00,
2013-06-16 05:00:00,54.0,51.4,29.82,SSW,205,0.0,0.0,91,0.00,,,0.00,0,Wunderground v.1.15,2013-06-16 10:00:00,
2013-06-16 05:05:00,54.1,51.5,29.83,SSW,205,0.0,0.0,91,0.00,,,0.00,0,Wunderground v.1.15,2013-06-16 10:05:00,
2013-06-16 05:14:00,54.7,52.1,29.83,SSW,205,0.0,1.0,91,0.00,,,0.00,0,Wunderground v.1.15,2013-06-16 10:14:00,
2013-06-16 05:19:00,55.0,52.1,29.84,SSW,205,0.0,0.0,90,0.00,,,0.00,0,Wunderground v.1.15,2013-06-16 10:19:00,
2013-06-16 05:24:00,55.0,51.8,29.84,SSW,205,0.0,0.0,89,0.00,,,0.00,0,Wunderground v.1.15,2013-06-16 10:24:00,
2013-06-16 05:29:00,54.8,51.6,29.84,SSW,205,0.0,0.0,89,0.00,,,0.00,0,Wunderground v.1.15,2013-06-16 10:29:00,
2013-06-16 05:39:00,54.6,51.4,29.83,SSW,205,0.0,0.0,89,0.00,,,0.00,9,Wunderground v.1.15,2013-06-16 10:39:00,
2013-06-16 05:44:00,54.5,51.0,29.83,SSW,205,0.0,0.0,88,0.00,,,0.00,11,Wunderground v.1.15,2013-06-16 10:44:00,
2013-06-16 05:49:00,54.3,50.8,29.83,SSW,205,0.0,0.0,88,0.00,,,0.00,12,Wunderground v.1.15,2013-06-16 10:49:00,
2013-06-16 05:54:00,54.2,50.7,29.83,SSW,205,0.0,0.0,88,0.00,,,0.00,14,Wunderground v.1.15,2013-06-16 10:54:00,
2013-06-16 05:59:00,54.1,50.9,29.83,SSW,205,0.0,0.0,89,0.00,,,0.00,18,Wunderground v.1.15,2013-06-16 10:59:00,
2013-06-16 06:05:00,54.0,50.8,29.84,SSW,205,0.0,0.0,89,0.00,,,0.00,19,Wunderground v.1.15,2013-06-16 11:05:00,
2013-06-16 06:14:00,54.3,51.1,29.84,SSW,205,0.0,0.0,89,0.00,,,0.00,23,Wunderground v.1.15,2013-06-16 11:14:00,
2013-06-16 06:19:00,54.6,51.4,29.85,SSW,205,0.0,0.0,89,0.00,,,0.00,25,Wunderground v.1.15,2013-06-16 11:19:00,
2013-06-16 06:24:00,54.7,51.5,29.85,SSW,205,0.0,0.0,89,0.00,,,0.00,26,Wunderground v.1.15,2013-06-16 11:24:00,
2013-06-16 06:29:00,54.8,51.6,29.85,SSW,205,0.0,0.0,89,0.00,,,0.00,28,Wunderground v.1.15,2013-06-16 11:29:00,
2013-06-16 06:34:00,54.9,51.7,29.85,SSW,205,0.0,0.0,89,0.00,,,0.00,30,Wunderground v.1.15,2013-06-16 11:34:00,
2013-06-16 06:44:00,55.3,52.1,29.85,SSW,205,0.0,0.0,89,0.00,,,0.00,33,Wunderground v.1.15,2013-06-16 11:44:00,
2013-06-16 06:49:00,55.6,52.4,29.85,SSW,205,0.0,0.0,89,0.00,,,0.00,35,Wunderground v.1.15,2013-06-16 11:49:00,
2013-06-16 06:54:00,56.2,53.0,29.85,SSW,205,0.0,0.0,89,0.00,,,0.00,37,Wunderground v.1.15,2013-06-16 11:54:00,
2013-06-16 06:59:00,56.7,53.2,29.85,SSW,205,0.0,0.0,88,0.00,,,0.00,39,Wunderground v.1.15,2013-06-16 11:59:00,
2013-06-16 07:05:00,57.2,53.4,29.85,SSW,205,0.0,0.0,87,0.00,,,0.00,39,Wunderground v.1.15,2013-06-16 12:05:00,
2013-06-16 07:14:00,58.2,54.0,29.85,SSW,205,0.0,0.0,86,0.00,,,0.00,42,Wunderground v.1.15,2013-06-16 12:14:00,
2013-06-16 07:19:00,58.9,54.7,29.86,SSW,205,0.0,0.0,86,0.00,,,0.01,42,Wunderground v.1.15,2013-06-16 12:19:00,
2013-06-16 07:24:00,59.3,54.5,29.86,SSW,205,0.0,0.0,84,0.00,,,0.01,44,Wunderground v.1.15,2013-06-16 12:24:00,
2013-06-16 07:29:00,60.0,55.2,29.86,SSW,205,0.0,2.0,84,0.00,,,0.01,46,Wunderground v.1.15,2013-06-16 12:29:00,
2013-06-16 07:34:00,61.1,55.6,29.86,SSW,205,1.0,2.0,82,0.00,,,0.01,193,Wunderground v.1.15,2013-06-16 12:34:00,
2013-06-16 07:39:00,62.1,55.9,29.86,SSW,205,1.0,1.0,80,0.00,,,0.01,287,Wunderground v.1.15,2013-06-16 12:39:00,
2013-06-16 07:49:00,63.9,56.5,29.85,SSW,205,0.0,2.0,77,0.00,,,0.01,316,Wunderground v.1.15,2013-06-16 12:49:00,
2013-06-16 07:54:00,64.7,57.0,29.85,SSW,205,0.0,2.0,76,0.00,,,0.01,332,Wunderground v.1.15,2013-06-16 12:54:00,
2013-06-16 07:59:00,65.4,56.9,29.85,SSW,205,0.0,1.0,74,0.00,,,0.01,348,Wunderground v.1.15,2013-06-16 12:59:00,
2013-06-16 08:05:00,65.9,56.6,29.85,SSW,205,1.0,1.0,72,0.00,,,0.01,376,Wunderground v.1.15,2013-06-16 13:05:00,
2013-06-16 08:14:00,66.9,57.6,29.85,SSW,205,1.0,1.0,72,0.00,,,0.01,411,Wunderground v.1.15,2013-06-16 13:14:00,
2013-06-16 08:19:00,67.5,58.2,29.85,SSW,205,1.0,1.0,72,0.00,,,0.01,429,Wunderground v.1.15,2013-06-16 13:19:00,
2013-06-16 08:24:00,67.9,57.8,29.85,SSW,205,0.0,1.0,70,0.00,,,0.01,441,Wunderground v.1.15,2013-06-16 13:24:00,
2013-06-16 08:29:00,68.5,57.5,29.85,SW,232,0.0,0.0,68,0.00,,,0.01,457,Wunderground v.1.15,2013-06-16 13:29:00,
2013-06-16 08:34:00,69.1,57.7,29.85,WNW,285,1.0,1.0,67,0.00,,,0.01,471,Wunderground v.1.15,2013-06-16 13:34:00,
2013-06-16 08:39:00,69.6,57.3,29.85,WNW,285,1.0,1.0,65,0.00,,,0.01,483,Wunderground v.1.15,2013-06-16 13:39:00,
2013-06-16 08:44:00,70.1,57.4,29.85,WNW,284,1.0,1.0,64,0.00,,,0.01,497,Wunderground v.1.15,2013-06-16 13:44:00,
2013-06-16 08:54:00,71.2,58.8,29.85,WNW,284,0.0,1.0,65,0.00,,,0.01,527,Wunderground v.1.15,2013-06-16 13:54:00,
2013-06-16 08:59:00,71.7,58.0,29.85,WNW,285,0.0,2.0,62,0.00,,,0.01,541,Wunderground v.1.15,2013-06-16 13:59:00,
2013-06-16 09:05:00,72.1,57.9,29.85,WNW,285,1.0,2.0,61,0.00,,,0.01,555,Wunderground v.1.15,2013-06-16 14:05:00,
2013-06-16 09:14:00,72.7,58.0,29.85,NW,304,1.0,2.0,60,0.00,,,0.01,584,Wunderground v.1.15,2013-06-16 14:14:00,
2013-06-16 09:24:00,73.4,57.2,29.85,West,281,1.0,1.0,57,0.00,,,0.01,606,Wunderground v.1.15,2013-06-16 14:24:00,
2013-06-16 09:29:00,73.7,58.5,29.85,SW,234,1.0,3.0,59,0.00,,,0.01,621,Wunderground v.1.15,2013-06-16 14:29:00,
2013-06-16 09:34:00,74.0,59.2,29.85,SW,219,0.0,3.0,60,0.00,,,0.01,635,Wunderground v.1.15,2013-06-16 14:34:00,
2013-06-16 09:39:00,74.3,57.6,29.85,West,275,1.0,1.0,56,0.00,,,0.01,645,Wunderground v.1.15,2013-06-16 14:39:00,
2013-06-16 09:44:00,74.7,58.9,29.85,WNW,283,1.0,3.0,58,0.00,,,0.01,661,Wunderground v.1.15,2013-06-16 14:44:00,
2013-06-16 09:49:00,75.0,58.2,29.85,West,270,1.0,1.0,56,0.00,,,0.01,671,Wunderground v.1.15,2013-06-16 14:49:00,
2013-06-16 09:59:00,75.2,58.9,29.85,WSW,237,1.0,1.0,57,0.00,,,0.01,696,Wunderground v.1.15,2013-06-16 14:59:00,
2013-06-16 10:05:00,75.3,57.0,29.85,WNW,302,1.0,3.0,53,0.00,,,0.01,707,Wunderground v.1.15,2013-06-16 15:05:00,
2013-06-16 10:14:00,75.7,57.4,29.85,SW,223,1.0,2.0,53,0.00,,,0.01,731,Wunderground v.1.15,2013-06-16 15:14:00,
2013-06-16 10:19:00,75.9,57.5,29.85,SW,222,2.0,4.0,53,0.00,,,0.01,744,Wunderground v.1.15,2013-06-16 15:19:00,
2013-06-16 10:29:00,76.5,57.6,29.85,SW,232,2.0,2.0,52,0.00,,,0.01,763,Wunderground v.1.15,2013-06-16 15:29:00,
2013-06-16 10:34:00,76.7,58.8,29.85,WNW,283,2.0,3.0,54,0.00,,,0.01,772,Wunderground v.1.15,2013-06-16 15:34:00,
2013-06-16 10:39:00,77.0,57.5,29.85,SW,230,2.0,3.0,51,0.00,,,0.01,784,Wunderground v.1.15,2013-06-16 15:39:00,
2013-06-16 10:44:00,77.1,55.3,29.85,West,281,2.0,3.0,47,0.00,,,0.01,793,Wunderground v.1.15,2013-06-16 15:44:00,
2013-06-16 10:54:00,77.5,57.4,29.85,WSW,256,2.0,3.0,50,0.00,,,0.01,812,Wunderground v.1.15,2013-06-16 15:54:00,
2013-06-16 11:00:00,77.8,57.1,29.85,West,279,3.0,6.0,49,0.00,,,0.01,821,Wunderground v.1.15,2013-06-16 16:00:00,
2013-06-16 11:05:00,78.1,56.8,29.85,WSW,252,2.0,6.0,48,0.00,,,0.01,828,Wunderground v.1.15,2013-06-16 16:05:00,
2013-06-16 11:14:00,78.3,55.8,29.85,West,279,2.0,3.0,46,0.00,,,0.01,842,Wunderground v.1.15,2013-06-16 16:14:00,
2013-06-16 11:19:00,78.4,56.5,29.84,SW,229,3.0,3.0,47,0.00,,,0.01,851,Wunderground v.1.15,2013-06-16 16:19:00,
2013-06-16 11:24:00,78.7,55.6,29.84,SW,225,2.0,4.0,45,0.00,,,0.01,856,Wunderground v.1.15,2013-06-16 16:24:00,
2013-06-16 11:34:00,78.7,57.4,29.84,SW,218,3.0,3.0,48,0.00,,,0.01,872,Wunderground v.1.15,2013-06-16 16:34:00,
2013-06-16 11:39:00,78.9,56.4,29.84,WSW,250,3.0,4.0,46,0.00,,,0.01,919,Wunderground v.1.15,2013-06-16 16:39:00,
2013-06-16 11:44:00,79.3,56.7,29.84,WSW,257,3.0,4.0,46,0.00,,,0.01,977,Wunderground v.1.15,2013-06-16 16:44:00,
2013-06-16 11:49:00,79.1,54.7,29.84,West,273,3.0,4.0,43,0.00,,,0.01,146,Wunderground v.1.15,2013-06-16 16:49:00,
2013-06-16 11:54:00,78.9,53.2,29.84,WNW,282,3.0,4.0,41,0.00,,,0.01,856,Wunderground v.1.15,2013-06-16 16:54:00,
2013-06-16 11:59:00,79.2,54.1,29.84,WNW,287,3.0,3.0,42,0.00,,,0.01,937,Wunderground v.1.15,2013-06-16 16:59:00,
2013-06-16 12:05:00,79.9,54.1,29.84,West,269,2.0,3.0,41,0.00,,,0.01,967,Wunderground v.1.15,2013-06-16 17:05:00,
2013-06-16 12:14:00,80.1,50.7,29.84,West,273,3.0,5.0,36,0.00,,,0.01,947,Wunderground v.1.15,2013-06-16 17:14:00,
2013-06-16 12:19:00,80.5,52.6,29.84,WNW,294,2.0,2.0,38,0.00,,,0.01,974,Wunderground v.1.15,2013-06-16 17:19:00,
2013-06-16 12:29:00,80.6,53.4,29.84,SW,228,2.0,2.0,39,0.00,,,0.01,508,Wunderground v.1.15,2013-06-16 17:29:00,
2013-06-16 12:35:00,80.3,53.1,29.83,WSW,252,3.0,6.0,39,0.00,,,0.01,1002,Wunderground v.1.15,2013-06-16 17:35:00,
2013-06-16 12:40:00,80.8,55.6,29.83,SW,236,3.0,3.0,42,0.00,,,0.01,960,Wunderground v.1.15,2013-06-16 17:40:00,
2013-06-16 12:45:00,81.0,53.0,29.83,WNW,286,3.0,3.0,38,0.00,,,0.01,1021,Wunderground v.1.15,2013-06-16 17:45:00,
2013-06-16 12:50:00,81.0,54.4,29.83,SSW,210,3.0,3.0,40,0.00,,,0.01,960,Wunderground v.1.15,2013-06-16 17:50:00,
2013-06-16 12:55:00,81.0,55.7,29.83,SE,130,3.0,4.0,42,0.00,,,0.01,969,Wunderground v.1.15,2013-06-16 17:55:00,
2013-06-16 13:00:00,81.2,56.6,29.83,West,280,3.0,3.0,43,0.00,,,0.01,958,Wunderground v.1.15,2013-06-16 18:00:00,
2013-06-16 13:05:00,81.4,52.6,29.83,NNW,347,3.0,4.0,37,0.00,,,0.01,1011,Wunderground v.1.15,2013-06-16 18:05:00,
2013-06-16 13:14:00,81.9,50.0,29.83,West,269,2.0,6.0,33,0.00,,,0.01,946,Wunderground v.1.15,2013-06-16 18:14:00,
2013-06-16 13:19:00,82.2,50.2,29.83,WNW,299,2.0,3.0,33,0.00,,,0.01,983,Wunderground v.1.15,2013-06-16 18:19:00,
2013-06-16 13:24:00,82.3,51.9,29.83,West,269,3.0,3.0,35,0.00,,,0.01,949,Wunderground v.1.15,2013-06-16 18:24:00,
2013-06-16 13:29:00,82.4,50.4,29.83,West,278,3.0,3.0,33,0.00,,,0.01,960,Wunderground v.1.15,2013-06-16 18:29:00,
2013-06-16 13:34:00,82.4,47.8,29.83,West,279,4.0,4.0,30,0.00,,,0.01,944,Wunderground v.1.15,2013-06-16 18:34:00,
2013-06-16 13:40:00,82.5,49.7,29.83,West,270,3.0,4.0,32,0.00,,,0.01,942,Wunderground v.1.15,2013-06-16 18:40:00,
2013-06-16 13:45:00,82.7,53.0,29.83,South,182,3.0,4.0,36,0.00,,,0.01,944,Wunderground v.1.15,2013-06-16 18:45:00,
2013-06-16 13:50:00,82.7,51.5,29.83,SSW,211,3.0,4.0,34,0.00,,,0.01,953,Wunderground v.1.15,2013-06-16 18:50:00,
2013-06-16 13:55:00,82.9,52.4,29.83,West,276,3.0,4.0,35,0.00,,,0.01,967,Wunderground v.1.15,2013-06-16 18:55:00,
2013-06-16 14:05:00,83.6,51.5,29.83,West,275,2.0,3.0,33,0.00,,,0.01,960,Wunderground v.1.15,2013-06-16 19:05:00,
2013-06-16 14:15:00,83.6,50.6,29.83,WSW,241,3.0,3.0,32,0.00,,,0.01,937,Wunderground v.1.15,2013-06-16 19:15:00,
2013-06-16 14:20:00,83.6,53.1,29.83,West,265,3.0,5.0,35,0.00,,,0.01,990,Wunderground v.1.15,2013-06-16 19:20:00,
2013-06-16 14:25:00,83.6,51.5,29.83,SW,218,4.0,5.0,33,0.00,,,0.01,1007,Wunderground v.1.15,2013-06-16 19:25:00,
2013-06-16 14:30:00,83.4,53.6,29.83,WSW,240,4.0,7.0,36,0.00,,,0.01,935,Wunderground v.1.15,2013-06-16 19:30:00,
2013-06-16 14:35:00,83.3,52.0,29.83,SSW,198,4.0,9.0,34,0.00,,,0.01,819,Wunderground v.1.15,2013-06-16 19:35:00,
2013-06-16 14:40:00,83.2,52.7,29.83,SW,218,4.0,4.0,35,0.00,,,0.01,874,Wunderground v.1.15,2013-06-16 19:40:00,
2013-06-16 14:49:00,82.4,53.5,29.83,WSW,257,3.0,3.0,37,0.00,,,0.01,926,Wunderground v.1.15,2013-06-16 19:49:00,
2013-06-16 14:54:00,82.9,53.2,29.83,West,272,2.0,3.0,36,0.00,,,0.01,939,Wunderground v.1.15,2013-06-16 19:54:00,
2013-06-16 14:59:00,83.1,52.6,29.83,WNW,284,3.0,3.0,35,0.00,,,0.01,835,Wunderground v.1.15,2013-06-16 19:59:00,
2013-06-16 15:05:00,83.4,54.4,29.83,NW,321,3.0,3.0,37,0.00,,,0.01,800,Wunderground v.1.15,2013-06-16 20:05:00,
2013-06-16 15:15:00,83.9,57.0,29.83,NE,36,1.0,2.0,40,0.00,,,0.01,809,Wunderground v.1.15,2013-06-16 20:15:00,
2013-06-16 15:25:00,84.1,53.5,29.82,WSW,243,2.0,3.0,35,0.00,,,0.01,817,Wunderground v.1.15,2013-06-16 20:25:00,
2013-06-16 15:34:00,84.0,53.4,29.81,WSW,244,3.0,3.0,35,0.00,,,0.01,747,Wunderground v.1.15,2013-06-16 20:34:00,
2013-06-16 15:39:00,84.0,53.4,29.81,SW,221,3.0,3.0,35,0.00,,,0.01,798,Wunderground v.1.15,2013-06-16 20:39:00,
2013-06-16 15:49:00,84.0,51.8,29.81,SW,226,3.0,3.0,33,0.00,,,0.01,654,Wunderground v.1.15,2013-06-16 20:49:00,
2013-06-16 15:54:00,83.8,52.4,29.81,SSW,194,3.0,3.0,34,0.00,,,0.01,425,Wunderground v.1.15,2013-06-16 20:54:00,
2013-06-16 15:59:00,83.7,53.1,29.81,WSW,242,3.0,5.0,35,0.00,,,0.01,346,Wunderground v.1.15,2013-06-16 20:59:00,
2013-06-16 16:05:00,83.7,50.7,29.81,SSW,207,4.0,5.0,32,0.00,,,0.01,193,Wunderground v.1.15,2013-06-16 21:05:00,
2013-06-16 16:14:00,83.9,50.9,29.81,WSW,240,4.0,5.0,32,0.00,,,0.01,246,Wunderground v.1.15,2013-06-16 21:14:00,
2013-06-16 16:24:00,84.0,52.6,29.79,SW,231,3.0,6.0,34,0.00,,,0.01,188,Wunderground v.1.15,2013-06-16 21:24:00,
2013-06-16 16:29:00,83.9,50.9,29.79,West,262,3.0,3.0,32,0.00,,,0.01,179,Wunderground v.1.15,2013-06-16 21:29:00,
2013-06-16 16:34:00,83.9,54.1,29.79,SW,229,2.0,3.0,36,0.00,,,0.01,186,Wunderground v.1.15,2013-06-16 21:34:00,
2013-06-16 16:44:00,83.9,53.3,29.79,SW,232,2.0,3.0,35,0.00,,,0.01,193,Wunderground v.1.15,2013-06-16 21:44:00,
2013-06-16 16:49:00,83.8,51.6,29.78,SSW,213,2.0,4.0,33,0.00,,,0.01,188,Wunderground v.1.15,2013-06-16 21:49:00,
2013-06-16 16:55:00,83.8,50.8,29.78,WSW,240,3.0,4.0,32,0.00,,,0.01,195,Wunderground v.1.15,2013-06-16 21:55:00,
2013-06-16 17:00:00,83.7,50.7,29.78,SW,224,4.0,4.0,32,0.00,,,0.01,186,Wunderground v.1.15,2013-06-16 22:00:00,
2013-06-16 17:05:00,83.3,51.2,29.78,SW,227,3.0,4.0,33,0.00,,,0.01,227,Wunderground v.1.15,2013-06-16 22:05:00,
2013-06-16 17:14:00,82.9,51.6,29.78,SW,223,2.0,2.0,34,0.00,,,0.01,229,Wunderground v.1.15,2013-06-16 22:14:00,
2013-06-16 17:19:00,82.6,50.6,29.78,SW,222,3.0,3.0,33,0.00,,,0.01,200,Wunderground v.1.15,2013-06-16 22:19:00,
2013-06-16 17:25:00,82.3,51.9,29.78,SSW,196,3.0,3.0,35,0.00,,,0.01,199,Wunderground v.1.15,2013-06-16 22:25:00,
2013-06-16 17:30:00,81.9,51.6,29.78,WSW,237,2.0,2.0,35,0.00,,,0.01,178,Wunderground v.1.15,2013-06-16 22:30:00,
2013-06-16 17:35:00,81.5,52.0,29.78,WNW,284,2.0,2.0,36,0.00,,,0.01,142,Wunderground v.1.15,2013-06-16 22:35:00,
2013-06-16 17:40:00,81.4,52.6,29.78,WSW,237,1.0,2.0,37,0.00,,,0.01,95,Wunderground v.1.15,2013-06-16 22:40:00,
2013-06-16 17:45:00,81.0,51.5,29.78,WSW,240,1.0,2.0,36,0.00,,,0.01,63,Wunderground v.1.15,2013-06-16 22:45:00,
2013-06-16 17:55:00,80.5,51.8,29.77,SSW,200,2.0,9.0,37,0.00,,,0.01,46,Wunderground v.1.15,2013-06-16 22:55:00,
2013-06-16 18:00:00,78.8,51.7,29.77,SW,223,6.0,11.0,39,0.00,,,0.01,51,Wunderground v.1.15,2013-06-16 23:00:00,
2013-06-16 18:05:00,77.3,51.1,29.79,WSW,237,9.0,12.0,40,0.00,,,0.01,67,Wunderground v.1.15,2013-06-16 23:05:00,
2013-06-16 18:15:00,73.5,52.0,29.79,SW,217,10.0,10.0,47,0.00,,,0.01,77,Wunderground v.1.15,2013-06-16 23:15:00,
2013-06-16 18:20:00,72.6,52.3,29.80,SW,228,9.0,9.0,49,0.00,,,0.01,67,Wunderground v.1.15,2013-06-16 23:20:00,
2013-06-16 18:25:00,72.1,53.0,29.80,SSW,199,7.0,9.0,51,0.00,,,0.01,67,Wunderground v.1.15,2013-06-16 23:25:00,
2013-06-16 18:35:00,71.7,53.1,29.81,SSW,210,4.0,5.0,52,0.00,,,0.01,37,Wunderground v.1.15,2013-06-16 23:35:00,
2013-06-16 18:44:00,72.0,53.4,29.81,SW,215,5.0,7.0,52,0.00,,,0.01,162,Wunderground v.1.15,2013-06-16 23:44:00,
2013-06-16 18:49:00,72.6,53.4,29.79,SW,230,6.0,6.0,51,0.00,,,0.01,199,Wunderground v.1.15,2013-06-16 23:49:00,
2013-06-16 18:54:00,72.9,53.7,29.79,WNW,294,4.0,6.0,51,0.00,,,0.01,197,Wunderground v.1.15,2013-06-16 23:54:00,
2013-06-16 19:05:00,72.9,53.2,29.80,SSW,209,2.0,3.0,50,0.00,,,0.01,104,Wunderground v.1.15,2013-06-17 00:05:00,
2013-06-16 19:14:00,73.2,54.0,29.80,West,271,2.0,3.0,51,0.00,,,0.01,309,Wunderground v.1.15,2013-06-17 00:14:00,
2013-06-16 19:19:00,73.9,54.6,29.79,WSW,253,1.0,2.0,51,0.00,,,0.01,432,Wunderground v.1.15,2013-06-17 00:19:00,
2013-06-16 19:24:00,74.5,55.2,29.79,SW,225,1.0,2.0,51,0.00,,,0.01,260,Wunderground v.1.15,2013-06-17 00:24:00,
2013-06-16 19:29:00,75.0,55.1,29.79,SW,225,1.0,1.0,50,0.00,,,0.01,214,Wunderground v.1.15,2013-06-17 00:29:00,
2013-06-16 19:39:00,74.6,54.7,29.78,SW,223,2.0,6.0,50,0.00,,,0.01,178,Wunderground v.1.15,2013-06-17 00:39:00,
2013-06-16 19:44:00,74.0,54.7,29.78,SSW,211,3.0,6.0,51,0.00,,,0.01,163,Wunderground v.1.15,2013-06-17 00:44:00,
2013-06-16 19:49:00,73.7,56.0,29.78,SSW,211,2.0,2.0,54,0.00,,,0.01,109,Wunderground v.1.15,2013-06-17 00:49:00,
2013-06-16 19:54:00,73.8,55.6,29.78,SSW,211,1.0,2.0,53,0.00,,,0.01,102,Wunderground v.1.15,2013-06-17 00:54:00,
2013-06-16 19:59:00,74.0,55.8,29.78,SSW,211,0.0,0.0,53,0.00,,,0.01,53,Wunderground v.1.15,2013-06-17 00:59:00,
2013-06-16 20:05:00,74.0,55.8,29.78,SSW,211,0.0,0.0,53,0.00,,,0.01,44,Wunderground v.1.15,2013-06-17 01:05:00,
2013-06-16 20:14:00,73.3,55.6,29.78,SSW,211,0.0,0.0,54,0.00,,,0.01,25,Wunderground v.1.15,2013-06-17 01:14:00,
2013-06-16 20:19:00,72.9,55.3,29.78,SSW,211,0.0,0.0,54,0.00,,,0.01,26,Wunderground v.1.15,2013-06-17 01:19:00,
2013-06-16 20:24:00,72.4,56.3,29.78,SSW,211,0.0,3.0,57,0.00,,,0.01,19,Wunderground v.1.15,2013-06-17 01:24:00,
2013-06-16 20:29:00,71.9,55.8,29.78,SSW,211,1.0,2.0,57,0.00,,,0.01,18,Wunderground v.1.15,2013-06-17 01:29:00,
2013-06-16 20:34:00,71.7,56.1,29.78,SSW,211,2.0,2.0,58,0.00,,,0.01,16,Wunderground v.1.15,2013-06-17 01:34:00,
2013-06-16 20:44:00,71.0,56.4,29.78,SSW,211,1.0,2.0,60,0.00,,,0.01,11,Wunderground v.1.15,2013-06-17 01:44:00,
2013-06-16 20:49:00,70.8,56.2,29.77,SSW,211,1.0,1.0,60,0.00,,,0.01,9,Wunderground v.1.15,2013-06-17 01:49:00,
2013-06-16 20:54:00,70.5,56.4,29.77,SSW,211,1.0,2.0,61,0.00,,,0.01,7,Wunderground v.1.15,2013-06-17 01:54:00,
2013-06-16 20:59:00,70.3,56.2,29.77,SSW,211,1.0,1.0,61,0.00,,,0.01,5,Wunderground v.1.15,2013-06-17 01:59:00,
2013-06-16 21:05:00,69.9,56.3,29.76,SSW,211,1.0,1.0,62,0.00,,,0.01,0,Wunderground v.1.15,2013-06-17 02:05:00,
2013-06-16 21:14:00,69.2,56.5,29.76,SSW,211,1.0,1.0,64,0.00,,,0.01,0,Wunderground v.1.15,2013-06-17 02:14:00,
2013-06-16 21:19:00,68.7,56.0,29.77,SSW,211,1.0,1.0,64,0.00,,,0.01,0,Wunderground v.1.15,2013-06-17 02:19:00,
2013-06-16 21:24:00,68.3,56.5,29.77,SSW,211,1.0,2.0,66,0.00,,,0.01,0,Wunderground v.1.15,2013-06-17 02:24:00,
2013-06-16 21:29:00,68.0,56.2,29.77,SSW,211,0.0,1.0,66,0.00,,,0.01,0,Wunderground v.1.15,2013-06-17 02:29:00,
2013-06-16 21:34:00,67.7,56.3,29.78,SSW,211,1.0,1.0,67,0.00,,,0.01,0,Wunderground v.1.15,2013-06-17 02:34:00,
2013-06-16 21:39:00,67.5,56.6,29.78,SSW,211,1.0,1.0,68,0.00,,,0.01,0,Wunderground v.1.15,2013-06-17 02:39:00,
2013-06-16 21:49:00,67.1,56.2,29.78,SSW,211,1.0,1.0,68,0.00,,,0.01,0,Wunderground v.1.15,2013-06-17 02:49:00,
2013-06-16 21:54:00,66.9,56.4,29.78,SSW,211,0.0,1.0,69,0.00,,,0.01,0,Wunderground v.1.15,2013-06-17 02:54:00,
2013-06-16 21:59:00,66.6,56.1,29.78,SSW,211,0.0,0.0,69,0.00,,,0.01,0,Wunderground v.1.15,2013-06-17 02:59:00,
2013-06-16 22:05:00,66.2,55.7,29.79,SSW,211,0.0,0.0,69,0.00,,,0.01,0,Wunderground v.1.15,2013-06-17 03:05:00,
2013-06-16 22:14:00,65.4,56.1,29.79,SSW,211,0.0,0.0,72,0.00,,,0.01,0,Wunderground v.1.15,2013-06-17 03:14:00,
2013-06-16 22:19:00,65.0,56.1,29.79,SSW,211,0.0,0.0,73,0.00,,,0.01,0,Wunderground v.1.15,2013-06-17 03:19:00,
2013-06-16 22:30:00,64.3,56.6,29.79,SSW,211,0.0,0.0,76,0.00,,,0.01,0,Wunderground v.1.15,2013-06-17 03:30:00,
2013-06-16 22:35:00,64.1,56.7,29.79,SSW,211,0.0,0.0,77,0.00,,,0.01,0,Wunderground v.1.15,2013-06-17 03:35:00,
2013-06-16 22:40:00,63.9,56.5,29.79,SSW,211,0.0,0.0,77,0.00,,,0.01,0,Wunderground v.1.15,2013-06-17 03:40:00,
2013-06-16 22:50:00,63.5,55.4,29.80,SSW,211,0.0,0.0,75,0.00,,,0.01,0,Wunderground v.1.15,2013-06-17 03:50:00,
2013-06-16 22:55:00,63.4,55.3,29.80,SSW,211,0.0,0.0,75,0.00,,,0.01,0,Wunderground v.1.15,2013-06-17 03:55:00,
2013-06-16 23:00:00,63.2,55.1,29.80,SSW,211,0.0,0.0,75,0.00,,,0.01,0,Wunderground v.1.15,2013-06-17 04:00:00,
2013-06-16 23:05:00,63.1,55.0,29.80,SSW,211,0.0,0.0,75,0.00,,,0.01,0,Wunderground v.1.15,2013-06-17 04:05:00,
2013-06-16 23:09:00,63.1,55.8,29.80,SSW,211,0.0,0.0,77,0.00,,,0.01,0,Wunderground v.1.15,2013-06-17 04:09:00,
2013-06-16 23:14:00,63.0,55.7,29.80,SSW,211,0.0,0.0,77,0.00,,,0.01,0,Wunderground v.1.15,2013-06-17 04:14:00,
2013-06-16 23:24:00,63.0,56.7,29.79,SSW,211,1.0,2.0,80,0.00,,,0.01,0,Wunderground v.1.15,2013-06-17 04:24:00,
2013-06-16 23:29:00,63.6,56.3,29.79,SSW,211,2.0,2.0,77,0.00,,,0.01,0,Wunderground v.1.15,2013-06-17 04:29:00,
2013-06-16 23:34:00,64.3,56.6,29.79,SSW,211,1.0,2.0,76,0.00,,,0.01,0,Wunderground v.1.15,2013-06-17 04:34:00,
2013-06-16 23:39:00,64.6,56.5,29.79,SSW,211,1.0,1.0,75,0.00,,,0.01,0,Wunderground v.1.15,2013-06-17 04:39:00,
2013-06-16 23:44:00,64.8,56.7,29.79,SSW,211,1.0,2.0,75,0.00,,,0.01,0,Wunderground v.1.15,2013-06-17 04:44:00,
2013-06-16 23:49:00,64.9,56.8,29.79,SSW,211,1.0,1.0,75,0.00,,,0.01,0,Wunderground v.1.15,2013-06-17 04:49:00,
2013-06-16 23:55:00,64.9,56.8,29.79,SSW,211,1.0,2.0,75,0.00,,,0.01,0,Wunderground v.1.15,2013-06-17 04:55:00,